MST,Max TemperatureF,Mean TemperatureF,Min TemperatureF,Max Dew PointF,MeanDew PointF,Min DewpointF,Max Humidity, Mean Humidity, Min Humidity, Max Sea Level PressureIn, Mean Sea Level PressureIn, Min Sea Level PressureIn, Max VisibilityMiles, Mean VisibilityMiles, Min VisibilityMiles, Max Wind SpeedMPH, Mean Wind SpeedMPH, Max Gust SpeedMPH,PrecipitationIn, CloudCover, Events, WindDirDegrees
2012-11-1,64,55,46,45,39,34,71,51,31,30.05,29.94,29.80,10,10,6,17,6,24,0.04,4,Rain,72
2012-11-2,62,51,39,39,35,32,85,59,32,30.16,30.10,30.05,10,10,10,13,5,15,0.00,0,,133
2012-11-3,65,54,42,39,35,33,76,54,31,30.22,30.17,30.08,10,10,10,13,2,16,0.00,3,,124
2012-11-4,65,53,41,41,39,37,82,61,39,30.41,30.34,30.23,10,10,10,10,3,13,0.00,1,,321
2012-11-5,67,55,42,42,40,37,82,61,40,30.41,30.35,30.27,10,10,10,10,4,13,0.00,0,,124
2012-11-6,74,59,43,44,41,38,89,58,27,30.28,30.14,29.98,10,10,10,13,6,16,0.00,0,,124
2012-11-7,64,54,43,42,37,32,76,58,39,29.99,29.94,29.84,10,10,10,14,6,17,0.00,3,,278
2012-11-8,51,43,34,35,32,30,82,66,50,29.81,29.68,29.59,10,10,10,17,5,23,0.00,2,,283
2012-11-9,42,36,29,30,27,23,89,68,46,29.81,29.76,29.68,10,10,7,14,4,17,T,6,Snow,313
2012-11-10,40,31,22,25,21,18,88,66,44,30.16,29.97,29.81,10,9,8,16,5,20,0.00,2,Snow,301
2012-11-11,39,29,18,21,18,14,84,64,44,30.47,30.38,30.19,10,10,9,9,4,13,0.00,1,,96
2012-11-12,42,36,30,34,25,17,92,67,41,30.47,30.42,30.35,10,10,9,21,10,26,0.01,7,Snow,141
2012-11-13,46,41,36,37,35,33,92,81,70,30.40,30.32,30.22,10,7,0,10,3,13,0.01,8,Fog-Snow,329
2012-11-14,44,40,36,36,35,34,100,88,76,30.36,30.27,30.22,10,4,0,10,3,12,0.00,8,Fog,273
2012-11-15,53,45,36,36,33,30,85,63,41,30.37,30.24,30.08,10,9,6,23,9,30,0.00,4,,140
2012-11-16,57,48,39,39,36,32,76,64,51,30.07,30.02,29.98,10,10,9,16,7,25,0.03,7,Rain,118
2012-11-17,59,52,44,45,38,33,77,60,43,29.96,29.82,29.71,10,10,10,25,13,32,0.02,5,Rain,128
2012-11-18,55,46,37,43,32,24,79,59,39,30.09,29.99,29.76,10,10,6,25,6,31,0.06,3,Rain,113
2012-11-19,57,49,41,41,36,34,70,55,40,30.13,30.07,30.00,10,10,10,24,14,29,0.01,5,Rain,128
2012-11-20,62,58,54,40,37,34,55,48,40,29.99,29.88,29.77,10,10,10,24,15,37,T,4,,125
2012-11-21,59,46,32,41,33,24,69,55,40,30.27,29.96,29.73,10,10,6,23,10,33,0.03,4,Rain-Snow,186
2012-11-22,49,39,28,29,25,22,85,60,34,30.52,30.45,30.30,10,10,9,13,4,15,0.00,0,Snow,130
2012-11-23,47,40,32,29,26,23,70,56,42,30.49,30.41,30.30,10,10,10,16,7,21,0.00,0,,132
2012-11-24,44,39,34,39,34,28,100,85,70,30.29,30.18,30.05,10,8,2,8,3,9,0.13,7,Rain,334
2012-11-25,47,38,29,39,35,25,100,75,49,30.26,30.12,30.03,10,5,0,16,7,18,0.17,6,Fog-Rain-Snow,295
2012-11-26,46,36,26,29,26,22,85,63,41,30.36,30.29,30.25,10,10,10,18,8,22,0.00,0,,140
2012-11-27,44,35,26,30,27,22,89,71,53,30.31,30.25,30.19,10,10,6,9,2,12,0.00,0,,108
2012-11-28,45,37,28,39,31,26,92,77,62,30.19,30.05,29.94,10,8,4,15,3,17,0.02,3,Rain,51
2012-11-29,57,47,37,39,37,34,92,66,40,30.02,29.92,29.78,10,10,6,21,12,24,0.00,4,,124
2012-11-30,59,53,47,45,39,35,80,62,43,29.81,29.72,29.66,10,10,10,28,14,35,0.02,7,Rain,138